Rochester/St. Mary\'s Hospita, MN

10:37 PM CDT on June 18, 2018 (GMT -0500)
Rochester/St. Mary\'s Hospita

Weather History for K9MN - October, 2017

Change the Weather History Date:

Tuesday, October 31, 2017

  Actual Average (KRST) Record (KRST)
Temperature  
Mean Temperature 29 °F -  
Max Temperature 33 °F 52 °F 78 °F (1950)
Min Temperature 25 °F 34 °F 15 °F (1993)
Degree Days  
Heating Degree Days 36    
Moisture  
Dew Point 19 °F    
Average Humidity 65    
Maximum Humidity 73    
Minimum Humidity 50    
Precipitation  
Precipitation 0.00 in - - ()
Sea Level Pressure  
Sea Level Pressure 30.04 in    
Wind  
Wind Speed 14 mph (WSW)    
Max Wind Speed 26 mph    
Max Gust Speed 34 mph    
Visibility 10 miles    
Events      
Averages and records for this station are not official NWS values.
T = Trace of Precipitation, MM = Missing Value Source: NWS Daily Summary

Daily Weather History Graph

Daily Weather History Graph

Search for Another Location

Airport or City:

Astronomy

Oct. 31, 2017 Rise Set
Actual Time 7:45 AM CDT 6:00 PM CDT
Civil Twilight 7:15 AM CDT 6:30 PM CDT
Nautical Twilight 6:41 AM CDT 7:04 PM CDT
Astronomical Twilight 6:07 AM CDT 7:38 PM CDT
Moon 4:33 PM CDT (10/31) 3:20 AM CDT (10/31)
Length of Visible Light 11h 15m
Length of Day
10h 15m
Waxing Gibbous, 85% of the Moon is Illuminated
Oct 31
Waxing Gibbous
Nov 4
Full
Nov 10
Last Quarter
Nov 18
New
Nov 26
First Quarter

Hourly Weather History & Observations

Time (CDT) Temp. Windchill Dew Point Humidity Pressure Visibility Wind Dir Wind Speed Gust Speed Precip Events Conditions
12:12 AM 30.9 °F 16.9 °F 20.3 °F 65% 29.95 in 10.0 mi West 26.5 mph 34.5 mph N/A   Overcast
12:31 AM 30.9 °F 19.1 °F 19.6 °F 63% 29.97 in 10.0 mi West 18.4 mph 29.9 mph N/A   Overcast
12:52 AM 30.7 °F 18.8 °F 20.1 °F 65% 29.97 in 10.0 mi West 18.4 mph 29.9 mph N/A   Overcast
1:11 AM 30.7 °F 18.1 °F 22.1 °F 70% 29.98 in 10.0 mi West 20.7 mph 31.1 mph N/A   Overcast
1:31 AM 29.8 °F 17.7 °F 22.1 °F 73% 29.98 in 10.0 mi West 18.4 mph 28.8 mph N/A   Overcast
1:52 AM 29.8 °F 17.7 °F 22.1 °F 73% 29.99 in 10.0 mi WNW 18.4 mph 31.1 mph N/A   Overcast
2:11 AM 30.0 °F 16.9 °F 21.9 °F 72% 29.99 in 10.0 mi WNW 21.9 mph 29.9 mph N/A   Overcast
2:31 AM 30.0 °F 19.5 °F 22.1 °F 72% 30.01 in 10.0 mi West 13.8 mph 28.8 mph N/A   Overcast
2:52 AM 29.8 °F 18.0 °F 21.4 °F 71% 30.01 in 10.0 mi West 17.3 mph 26.5 mph N/A   Overcast
3:11 AM 30.0 °F 17.9 °F 21.6 °F 71% 30.02 in 10.0 mi West 18.4 mph 28.8 mph N/A   Overcast
3:31 AM 29.8 °F 18.0 °F 21.4 °F 71% 30.02 in 10.0 mi WNW 17.3 mph 27.6 mph N/A   Overcast
3:52 AM 29.7 °F 18.6 °F 21.4 °F 71% 30.02 in 10.0 mi WNW 15.0 mph 21.9 mph N/A   Overcast
4:12 AM 29.8 °F 18.4 °F 21.2 °F 70% 30.02 in 10.0 mi WNW 16.1 mph 21.9 mph N/A   Overcast
4:31 AM 29.8 °F 18.9 °F 20.3 °F 68% 30.04 in 10.0 mi West 15.0 mph 26.5 mph N/A   Overcast
4:52 AM 30.0 °F 19.1 °F 21.0 °F 69% 30.04 in 10.0 mi West 15.0 mph 21.9 mph N/A   Overcast
5:12 AM 29.7 °F 18.2 °F 21.2 °F 71% 30.05 in 10.0 mi West 16.1 mph 19.6 mph N/A   Overcast
5:32 AM 29.7 °F 17.8 °F 20.5 °F 69% 30.06 in 10.0 mi WNW 17.3 mph 23.0 mph N/A   Overcast
5:52 AM 29.8 °F 18.9 °F 20.3 °F 68% 30.06 in 10.0 mi WNW 15.0 mph 21.9 mph N/A   Overcast
6:11 AM 29.3 °F 18.2 °F 19.9 °F 68% 30.06 in 10.0 mi West 15.0 mph 20.7 mph N/A   Overcast
6:32 AM 29.3 °F 17.0 °F 19.6 °F 67% 30.07 in 10.0 mi West 18.4 mph 24.2 mph N/A   Overcast
6:52 AM 28.4 °F 16.2 °F 18.9 °F 67% 30.06 in 10.0 mi WNW 17.3 mph 24.2 mph N/A   Overcast
7:11 AM 28.4 °F 17.5 °F 18.7 °F 67% 30.07 in 10.0 mi WNW 13.8 mph 20.7 mph N/A   Overcast
7:32 AM 28.6 °F 19.3 °F 19.6 °F 69% 30.08 in 10.0 mi WNW 10.4 mph - N/A   Overcast
7:52 AM 28.9 °F 18.2 °F 19.9 °F 69% 30.09 in 10.0 mi West 13.8 mph 19.6 mph N/A   Overcast
8:11 AM 28.2 °F 18.9 °F 19.4 °F 70% 30.09 in 10.0 mi West 10.4 mph - N/A   Overcast
8:32 AM 28.6 °F 19.3 °F 19.8 °F 70% 30.09 in 10.0 mi West 10.4 mph 16.1 mph N/A   Overcast
8:52 AM 28.4 °F 18.5 °F 19.4 °F 69% 30.09 in 10.0 mi West 11.5 mph 18.4 mph N/A   Overcast
9:11 AM 28.2 °F 18.3 °F 19.0 °F 68% 30.11 in 10.0 mi WNW 11.5 mph - N/A   Overcast
9:32 AM 28.2 °F 18.9 °F 19.0 °F 68% 30.12 in 10.0 mi WNW 10.4 mph 17.3 mph N/A   Overcast
9:52 AM 28.6 °F 19.3 °F 19.6 °F 69% 30.12 in 10.0 mi West 10.4 mph - N/A   Overcast
10:11 AM 28.4 °F 20.4 °F 19.9 °F 71% 30.12 in 10.0 mi West 8.1 mph 11.5 mph N/A   Overcast
10:32 AM 28.4 °F 19.7 °F 19.4 °F 69% 30.13 in 10.0 mi West 9.2 mph - N/A   Overcast
10:51 AM 28.8 °F 19.5 °F 19.6 °F 69% 30.14 in 10.0 mi West 10.4 mph - N/A   Overcast
11:12 AM 28.9 °F 19.8 °F 19.0 °F 67% 30.13 in 10.0 mi West 10.4 mph 16.1 mph N/A   Overcast
11:32 AM 29.3 °F 23.2 °F 19.2 °F 66% 30.12 in 10.0 mi West 5.8 mph - N/A   Overcast
11:51 AM 29.7 °F 23.7 °F 20.1 °F 68% 30.12 in 10.0 mi West 5.8 mph - N/A   Overcast
12:12 PM 29.7 °F 22.0 °F 20.1 °F 68% 30.11 in 10.0 mi WSW 8.1 mph - N/A   Overcast
12:32 PM 29.7 °F 24.7 °F 19.6 °F 66% 30.11 in 10.0 mi WSW 4.6 mph - N/A   Overcast
12:51 PM 30.6 °F 23.1 °F 19.6 °F 64% 30.09 in 10.0 mi WNW 8.1 mph - N/A   Overcast
1:12 PM 32.0 °F 25.6 °F 19.8 °F 61% 30.09 in 10.0 mi SW 6.9 mph - N/A   Mostly Cloudy
1:32 PM 31.3 °F 24.7 °F 19.6 °F 62% 30.09 in 10.0 mi WSW 6.9 mph - N/A   Scattered Clouds
1:51 PM 32.0 °F 25.6 °F 19.4 °F 60% 30.09 in 10.0 mi West 6.9 mph - N/A   Mostly Cloudy
2:12 PM 32.2 °F 27.7 °F 18.5 °F 57% 30.07 in 10.0 mi SW 4.6 mph - N/A   Scattered Clouds
2:32 PM 32.0 °F 24.8 °F 18.5 °F 58% 30.06 in 10.0 mi West 8.1 mph 17.3 mph N/A   Mostly Cloudy
2:51 PM 32.4 °F 26.0 °F 18.9 °F 58% 30.05 in 10.0 mi WSW 6.9 mph - N/A   Scattered Clouds
3:12 PM 32.9 °F 29.8 °F 18.3 °F 55% 30.05 in 10.0 mi WSW 3.5 mph - N/A   Scattered Clouds
3:32 PM 32.7 °F 24.5 °F 17.4 °F 53% 30.04 in 10.0 mi SW 10.4 mph - N/A   Scattered Clouds
3:51 PM 32.7 °F 26.4 °F 17.2 °F 53% 30.03 in 10.0 mi WSW 6.9 mph - N/A   Clear
4:12 PM 33.3 °F 28.9 °F 17.2 °F 52% 30.03 in 10.0 mi WSW 4.6 mph - N/A   Clear
4:32 PM 32.4 °F 25.3 °F 16.2 °F 51% 30.03 in 10.0 mi WSW 8.1 mph - N/A   Clear
4:51 PM 33.1 °F 26.1 °F 16.3 °F 50% 30.02 in 10.0 mi SW 8.1 mph - N/A   Clear
5:12 PM 32.9 °F 26.7 °F 16.0 °F 50% 30.02 in 10.0 mi SW 6.9 mph - N/A   Clear
5:32 PM 31.8 °F 26.2 °F 15.3 °F 50% 30.02 in 10.0 mi SW 5.8 mph - N/A   Clear
5:51 PM 32.0 °F 26.4 °F 15.8 °F 51% 30.01 in 10.0 mi SW 5.8 mph - N/A   Clear
6:12 PM 32.0 °F 27.5 °F 17.2 °F 55% 30.01 in 10.0 mi South 4.6 mph - N/A   Clear
6:32 PM 31.1 °F 26.4 °F 17.1 °F 56% 30.01 in 10.0 mi South 4.6 mph - N/A   Clear
6:51 PM 30.4 °F 24.5 °F 16.3 °F 56% 30.01 in 10.0 mi South 5.8 mph - N/A   Clear
7:12 PM 29.7 °F 24.7 °F 16.5 °F 58% 30.00 in 10.0 mi SSE 4.6 mph - N/A   Scattered Clouds
7:31 PM 29.1 °F 24.1 °F 16.3 °F 59% 29.99 in 10.0 mi SSE 4.6 mph - N/A   Scattered Clouds
7:52 PM 29.1 °F 24.1 °F 16.7 °F 60% 29.99 in 10.0 mi SSE 4.6 mph - N/A   Scattered Clouds
8:12 PM 28.8 °F 22.6 °F 16.9 °F 61% 29.99 in 10.0 mi SSE 5.8 mph - N/A   Scattered Clouds
8:31 PM 28.4 °F 23.3 °F 17.2 °F 63% 29.99 in 10.0 mi SSE 4.6 mph - N/A   Scattered Clouds
8:52 PM 28.2 °F 23.1 °F 17.2 °F 63% 29.99 in 10.0 mi SSE 4.6 mph - N/A   Clear
9:12 PM 28.2 °F 22.0 °F 17.2 °F 63% 29.99 in 10.0 mi SSE 5.8 mph - N/A   Clear
9:31 PM 27.7 °F 22.4 °F 17.2 °F 65% 29.98 in 10.0 mi SE 4.6 mph - N/A   Clear
9:52 PM 27.1 °F 20.7 °F 17.1 °F 66% 29.97 in 10.0 mi SE 5.8 mph - N/A   Clear
10:12 PM 26.6 °F 20.0 °F 17.4 °F 68% 29.97 in 10.0 mi SE 5.8 mph - N/A   Clear
10:31 PM 26.1 °F 19.4 °F 17.4 °F 70% 29.96 in 10.0 mi SE 5.8 mph - N/A   Clear
10:52 PM 25.7 °F 18.0 °F 17.1 °F 70% 29.95 in 10.0 mi SE 6.9 mph - N/A   Clear
11:12 PM 25.7 °F 19.0 °F 17.2 °F 70% 29.95 in 10.0 mi SE 5.8 mph - N/A   Clear
11:31 PM 25.5 °F 19.9 °F 17.2 °F 71% 29.95 in 10.0 mi SE 4.6 mph - N/A   Clear
11:52 PM 25.5 °F 18.7 °F 17.2 °F 71% 29.94 in 10.0 mi SE 5.8 mph - N/A   Clear